Weather at Aviosuperficie San Felice

Public forecast

Using degrees Celsius for public forecast. Weather courtesy of forecast.io.

Closest aviation weather report (METAR) to Aviosuperficie San Felice

Closest report is Aviano Air Base, 20.1 nm (37.2 km) E. Retrieved 2021/06/21 09:55 UTC (8 minutes ago):

LIPA 210955Z 21004KT 9999 FEW050 30/21 Q1009 RMK FEW VIS MIN 9999 WIND THR05 /////KT WIND THR23 /////KT A2982 BLU

Closest aviation forecast (TAF) to Aviosuperficie San Felice

Forecast is more than 12 hours old.

Closest forecast is Aviano Air Base, 20.1 nm (37.2 km) E. Retrieved 2015/11/03 12:24 UTC (6 years ago):

TAF TAF LIPA 031100Z 0312/0324 VRB03KT CAVOK